Time;durP1;ratioP1;P1;durP2;ratioP2;P2;SDS_P1;SDS_P2;PMS_P1;PMS_P2;Temp;Humidity;BMP_temperature;BMP_pressure;BME280_temperature;BME280_humidity;BME280_pressure;Samples;Min_cycle;Max_cycle;Signal;HPM_P1;HPM_P2
2021/08/13 00:01:35;;;;;;;;;;;29.90;28.90;;;;;;4358157;32;19981;-37
2021/08/13 00:04:01;;;;;;;;;;;29.80;29.00;;;;;;4358107;32;19958;-38
2021/08/13 00:06:28;;;;;;;;;;;29.70;29.00;;;;;;4325592;33;19994;-37
2021/08/13 00:08:54;;;;;;;;;;;29.70;29.20;;;;;;4325854;33;20437;-38
2021/08/13 00:11:20;;;;;;;;;;;29.70;29.40;;;;;;4326074;33;19962;-38
2021/08/13 00:13:46;;;;;;;;;;;29.60;29.50;;;;;;4326012;33;19997;-38
2021/08/13 00:16:12;;;;;;;;;;;29.60;29.60;;;;;;4326164;33;20513;-38
2021/08/13 00:18:38;;;;;;;;;;;29.60;29.70;;;;;;4326184;33;20023;-38
2021/08/13 00:21:04;;;;;;;;;;;29.60;30.00;;;;;;4313759;33;19954;-38
2021/08/13 00:23:30;;;;;;;;;;;29.50;30.00;;;;;;4326091;33;19978;-38
2021/08/13 00:25:56;;;;;;;;;;;29.50;30.70;;;;;;4326225;33;20056;-38
2021/08/13 00:28:23;;;;;;;;;;;29.50;30.00;;;;;;4325836;33;20461;-38
2021/08/13 00:30:49;;;;;;;;;;;29.50;30.20;;;;;;4326309;33;19966;-38
2021/08/13 00:33:15;;;;;;;;;;;29.40;30.20;;;;;;4313981;33;19973;-37
2021/08/13 00:35:41;;;;;;;;;;;29.40;30.00;;;;;;4296304;33;19955;-38
2021/08/13 00:38:07;;;;;;;;;;;29.40;30.20;;;;;;4319347;33;19955;-38
2021/08/13 00:40:33;;;;;;;;;;;29.30;30.00;;;;;;4325649;33;19986;-38
2021/08/13 00:42:59;;;;;;;;;;;29.30;30.00;;;;;;4327726;33;19981;-39
2021/08/13 00:45:28;;;;;;;;;;;29.20;30.00;;;;;;4328821;33;19959;-38
2021/08/13 00:47:54;;;;;;;;;;;29.20;30.00;;;;;;4328354;33;19970;-38
2021/08/13 00:50:21;;;;;;;;;;;29.10;30.00;;;;;;4315911;33;20445;-38
2021/08/13 00:52:47;;;;;;;;;;;29.10;30.00;;;;;;4328689;33;19978;-37
2021/08/13 00:55:13;;;;;;;;;;;29.10;30.00;;;;;;4328043;33;20017;-38
2021/08/13 00:57:39;;;;;;;;;;;29.10;30.00;;;;;;4328683;33;19967;-36
2021/08/13 01:00:06;;;;;;;;;;;29.00;29.80;;;;;;4328257;33;20489;-38
2021/08/13 01:02:32;;;;;;;;;;;29.00;30.00;;;;;;4327586;33;19981;-38
2021/08/13 01:04:58;;;;;;;;;;;29.00;30.20;;;;;;4343206;33;19958;-37
2021/08/13 01:07:24;;;;;;;;;;;28.90;30.20;;;;;;4342874;33;19992;-38
2021/08/13 01:09:50;;;;;;;;;;;28.90;30.20;;;;;;4342804;33;19959;-36
2021/08/13 01:12:23;;;;;;;;;;;28.90;30.10;;;;;;4347387;32;20429;-37
2021/08/13 01:14:58;;;;;;;;;;;28.80;30.00;;;;;;4374845;32;19961;-36
2021/08/13 01:17:24;;;;;;;;;;;28.80;30.00;;;;;;4361986;32;20129;-36
2021/08/13 01:20:30;;;;;;;;;;;28.80;30.10;;;;;;4361357;32;19953;-36
2021/08/13 01:23:01;;;;;;;;;;;28.80;30.10;;;;;;4358571;32;19972;-36
2021/08/13 01:25:31;;;;;;;;;;;28.80;30.40;;;;;;4361288;32;19961;-37
2021/08/13 01:27:57;;;;;;;;;;;28.70;30.30;;;;;;4374883;32;20005;-35
2021/08/13 01:30:25;;;;;;;;;;;28.70;30.30;;;;;;4361633;32;20050;-37
2021/08/13 01:32:59;;;;;;;;;;;28.70;30.20;;;;;;4361375;32;20023;-36
2021/08/13 01:35:28;;;;;;;;;;;28.70;30.30;;;;;;4361125;32;20050;-37
2021/08/13 01:38:15;;;;;;;;;;;28.80;30.40;;;;;;4361016;32;19965;-37
2021/08/13 01:40:47;;;;;;;;;;;28.80;30.20;;;;;;4363080;32;20045;-37
2021/08/13 01:43:19;;;;;;;;;;;28.90;30.10;;;;;;4348871;32;19954;-37
2021/08/13 01:45:45;;;;;;;;;;;28.90;30.10;;;;;;4360921;32;20085;-38
2021/08/13 01:48:11;;;;;;;;;;;28.90;30.10;;;;;;4361119;32;19957;-37
2021/08/13 01:50:38;;;;;;;;;;;28.90;30.10;;;;;;4361071;32;19976;-37
2021/08/13 01:53:04;;;;;;;;;;;29.00;30.10;;;;;;4374677;32;19985;-37
2021/08/13 01:55:31;;;;;;;;;;;29.00;30.00;;;;;;4360706;32;19960;-37
2021/08/13 01:57:57;;;;;;;;;;;29.10;30.00;;;;;;4374466;32;20004;-37
2021/08/13 02:00:24;;;;;;;;;;;29.10;30.00;;;;;;4374722;32;19949;-37
2021/08/13 02:02:50;;;;;;;;;;;29.10;30.00;;;;;;4360855;32;20488;-36
2021/08/13 02:05:17;;;;;;;;;;;29.20;29.90;;;;;;4312354;33;19970;-37
2021/08/13 02:07:44;;;;;;;;;;;29.20;29.90;;;;;;4300707;33;20011;-37
2021/08/13 02:10:11;;;;;;;;;;;29.30;29.90;;;;;;4300622;33;20559;-37
2021/08/13 02:12:39;;;;;;;;;;;29.30;29.80;;;;;;4300965;33;19993;-37
2021/08/13 02:15:07;;;;;;;;;;;29.40;29.70;;;;;;4288052;33;20053;-37
2021/08/13 02:17:35;;;;;;;;;;;29.50;29.60;;;;;;4312687;33;20054;-37
2021/08/13 02:20:08;;;;;;;;;;;29.60;29.50;;;;;;4300602;33;20422;-36
2021/08/13 02:22:34;;;;;;;;;;;29.70;29.40;;;;;;4300616;33;20030;-38
2021/08/13 02:25:01;;;;;;;;;;;29.80;29.30;;;;;;4300204;33;19966;-38
2021/08/13 02:27:28;;;;;;;;;;;29.90;29.20;;;;;;4312105;33;20375;-36
2021/08/13 02:29:54;;;;;;;;;;;30.00;29.10;;;;;;4312633;33;20038;-37
2021/08/13 02:32:21;;;;;;;;;;;30.20;29.10;;;;;;4312026;33;19974;-37
2021/08/13 02:34:49;;;;;;;;;;;30.20;29.00;;;;;;4300056;33;20060;-37
2021/08/13 02:37:21;;;;;;;;;;;30.40;28.90;;;;;;4312325;33;19969;-37
2021/08/13 02:39:54;;;;;;;;;;;30.50;28.90;;;;;;4300116;33;20005;-37
2021/08/13 02:42:26;;;;;;;;;;;30.70;28.80;;;;;;4328246;32;20030;-37
2021/08/13 02:44:53;;;;;;;;;;;30.90;28.80;;;;;;4345227;32;20073;-37
2021/08/13 02:47:19;;;;;;;;;;;31.00;28.50;;;;;;4358426;32;20424;-38
2021/08/13 02:49:48;;;;;;;;;;;31.20;28.50;;;;;;4358834;32;19969;-36
2021/08/13 02:52:18;;;;;;;;;;;31.40;28.20;;;;;;4345436;32;19968;-37
2021/08/13 02:54:45;;;;;;;;;;;31.60;28.10;;;;;;4333210;32;20374;-38
2021/08/13 02:57:11;;;;;;;;;;;31.90;28.10;;;;;;4358485;32;20430;-36
2021/08/13 02:59:38;;;;;;;;;;;32.00;27.90;;;;;;4332137;32;20009;-38
2021/08/13 03:02:04;;;;;;;;;;;32.30;27.70;;;;;;4352894;32;20017;-37
2021/08/13 03:04:31;;;;;;;;;;;32.40;27.70;;;;;;4358371;32;20026;-36
2021/08/13 03:06:57;;;;;;;;;;;32.70;27.70;;;;;;4359100;32;19966;-37
2021/08/13 03:09:23;;;;;;;;;;;32.90;27.60;;;;;;4359240;32;19960;-37
2021/08/13 03:11:49;;;;;;;;;;;33.10;27.50;;;;;;4358689;32;20378;-37
2021/08/13 03:14:15;;;;;;;;;;;33.30;27.30;;;;;;4359254;32;19958;-38
2021/08/13 03:16:42;;;;;;;;;;;33.40;27.20;;;;;;4358597;32;19957;-36
2021/08/13 03:19:08;;;;;;;;;;;33.60;27.00;;;;;;4371620;32;20380;-37
2021/08/13 03:21:35;;;;;;;;;;;33.80;27.10;;;;;;4359183;32;19980;-37
2021/08/13 03:24:01;;;;;;;;;;;34.00;26.90;;;;;;4373323;32;20425;-37
2021/08/13 03:26:27;;;;;;;;;;;34.30;26.90;;;;;;4373327;32;20564;-37
2021/08/13 03:28:53;;;;;;;;;;;34.50;26.80;;;;;;4373114;32;19969;-38
2021/08/13 03:31:33;;;;;;;;;;;34.70;26.30;;;;;;4359405;32;20467;-38
2021/08/13 03:34:00;;;;;;;;;;;34.80;25.90;;;;;;4373014;32;19977;-37
2021/08/13 03:36:26;;;;;;;;;;;34.90;25.80;;;;;;4373406;32;20483;-37
2021/08/13 03:38:52;;;;;;;;;;;35.00;25.90;;;;;;4372821;32;19953;-37
2021/08/13 03:41:19;;;;;;;;;;;35.10;25.90;;;;;;4373194;32;20406;-38
2021/08/13 03:43:45;;;;;;;;;;;35.20;25.80;;;;;;4373401;32;19997;-37
2021/08/13 03:46:11;;;;;;;;;;;35.40;25.70;;;;;;4373253;32;20410;-37
2021/08/13 03:48:38;;;;;;;;;;;35.60;25.80;;;;;;4373118;32;19981;-38
2021/08/13 03:51:04;;;;;;;;;;;35.80;25.70;;;;;;4373039;32;19965;-37
2021/08/13 03:53:30;;;;;;;;;;;35.90;25.40;;;;;;4372944;32;19953;-36
2021/08/13 03:55:56;;;;;;;;;;;36.10;25.40;;;;;;4372586;32;19989;-37
2021/08/13 03:58:22;;;;;;;;;;;36.20;25.40;;;;;;4373096;32;19964;-37
2021/08/13 04:00:49;;;;;;;;;;;36.30;25.20;;;;;;4372320;32;19964;-37
2021/08/13 04:03:15;;;;;;;;;;;36.40;25.30;;;;;;4357940;32;20024;-37
2021/08/13 04:05:41;;;;;;;;;;;36.50;25.20;;;;;;4358123;32;19993;-37
2021/08/13 04:08:07;;;;;;;;;;;36.60;25.00;;;;;;4358003;32;19977;-38
2021/08/13 04:10:33;;;;;;;;;;;36.70;25.20;;;;;;4358277;32;19958;-37
2021/08/13 04:12:59;;;;;;;;;;;36.70;25.00;;;;;;4357773;32;19954;-37
2021/08/13 04:15:27;;;;;;;;;;;36.90;25.20;;;;;;4357759;32;19974;-38
2021/08/13 04:17:54;;;;;;;;;;;37.00;25.10;;;;;;4361027;32;19968;-36
2021/08/13 04:20:20;;;;;;;;;;;37.10;25.00;;;;;;4360998;32;20521;-36
2021/08/13 04:22:46;;;;;;;;;;;37.10;25.00;;;;;;4360795;32;19984;-37
2021/08/13 04:25:12;;;;;;;;;;;37.20;24.90;;;;;;4360861;32;20059;-38
2021/08/13 04:27:38;;;;;;;;;;;37.30;24.80;;;;;;4360582;32;20469;-38
2021/08/13 04:30:05;;;;;;;;;;;37.40;24.80;;;;;;4360778;32;19957;-38
2021/08/13 04:32:31;;;;;;;;;;;37.40;24.80;;;;;;4346792;32;20423;-38
2021/08/13 04:34:58;;;;;;;;;;;37.40;24.80;;;;;;4360780;32;19965;-38
2021/08/13 04:37:24;;;;;;;;;;;37.40;24.70;;;;;;4360803;32;19954;-38
2021/08/13 04:39:51;;;;;;;;;;;37.30;24.80;;;;;;4360686;32;20041;-38
2021/08/13 04:42:17;;;;;;;;;;;37.40;24.90;;;;;;4360497;32;19977;-37
2021/08/13 04:44:43;;;;;;;;;;;37.40;24.90;;;;;;4360518;32;20621;-38
2021/08/13 04:47:09;;;;;;;;;;;37.40;24.80;;;;;;4360645;32;19958;-38
2021/08/13 04:49:35;;;;;;;;;;;37.50;24.80;;;;;;4360362;32;20406;-37
2021/08/13 04:52:04;;;;;;;;;;;37.50;24.60;;;;;;4360348;32;20415;-37
2021/08/13 04:54:31;;;;;;;;;;;37.60;24.60;;;;;;4359852;32;20434;-38
2021/08/13 04:56:58;;;;;;;;;;;37.70;24.70;;;;;;4360346;32;19957;-39
2021/08/13 04:59:24;;;;;;;;;;;37.70;24.40;;;;;;4360176;32;20413;-38
2021/08/13 05:01:50;;;;;;;;;;;37.70;24.20;;;;;;4360554;32;20042;-37
2021/08/13 05:04:17;;;;;;;;;;;37.70;24.40;;;;;;4360181;32;20062;-37
2021/08/13 05:06:43;;;;;;;;;;;37.80;24.30;;;;;;4360445;32;19961;-37
2021/08/13 05:09:10;;;;;;;;;;;37.90;24.40;;;;;;4342105;33;19978;-38
2021/08/13 05:11:36;;;;;;;;;;;38.00;24.20;;;;;;4342374;33;20454;-37
2021/08/13 05:14:03;;;;;;;;;;;38.10;24.20;;;;;;4342084;33;19989;-37
2021/08/13 05:16:29;;;;;;;;;;;38.20;24.20;;;;;;4342340;32;19989;-38
2021/08/13 05:18:56;;;;;;;;;;;38.20;24.10;;;;;;4342443;32;20477;-39
2021/08/13 05:21:22;;;;;;;;;;;38.20;24.00;;;;;;4342556;33;19970;-38
2021/08/13 05:23:48;;;;;;;;;;;38.40;24.10;;;;;;4342731;33;19990;-38
2021/08/13 05:26:14;;;;;;;;;;;38.40;24.10;;;;;;4342479;33;19970;-38
2021/08/13 05:28:41;;;;;;;;;;;38.50;24.00;;;;;;4342292;32;19970;-39
2021/08/13 05:31:07;;;;;;;;;;;38.60;24.10;;;;;;4342077;33;20055;-39
2021/08/13 05:33:34;;;;;;;;;;;38.70;23.90;;;;;;4342482;33;20000;-38
2021/08/13 05:36:00;;;;;;;;;;;38.80;23.70;;;;;;4342222;33;19961;-38
2021/08/13 05:38:26;;;;;;;;;;;38.90;23.60;;;;;;4342607;33;19970;-38
2021/08/13 05:40:52;;;;;;;;;;;39.10;23.60;;;;;;4356519;32;19965;-39
2021/08/13 05:43:19;;;;;;;;;;;39.10;23.60;;;;;;4359685;32;19962;-38
2021/08/13 05:45:45;;;;;;;;;;;39.20;23.60;;;;;;4359609;32;19969;-39
2021/08/13 05:48:11;;;;;;;;;;;39.20;23.50;;;;;;4357840;32;19973;-38
2021/08/13 05:50:37;;;;;;;;;;;39.20;23.60;;;;;;4359194;32;20361;-38
2021/08/13 05:53:03;;;;;;;;;;;39.10;23.70;;;;;;4359571;32;20402;-37
2021/08/13 05:55:30;;;;;;;;;;;39.10;23.90;;;;;;4359543;32;20041;-37
2021/08/13 05:57:56;;;;;;;;;;;39.20;23.80;;;;;;4359256;32;19969;-38
2021/08/13 06:00:22;;;;;;;;;;;39.30;23.50;;;;;;4359570;32;19956;-38
2021/08/13 06:02:53;;;;;;;;;;;39.50;23.50;;;;;;4359058;32;20429;-38
2021/08/13 06:05:19;;;;;;;;;;;39.70;23.20;;;;;;4359247;32;19993;-37
2021/08/13 06:07:45;;;;;;;;;;;39.90;23.00;;;;;;4345038;32;19972;-38
2021/08/13 06:10:11;;;;;;;;;;;40.10;23.10;;;;;;4358827;32;20031;-38
2021/08/13 06:12:37;;;;;;;;;;;40.30;22.60;;;;;;4359073;32;19957;-37
2021/08/13 06:15:04;;;;;;;;;;;40.40;22.60;;;;;;4358893;32;19962;-37
2021/08/13 06:17:31;;;;;;;;;;;40.60;22.70;;;;;;4358730;32;20490;-38
2021/08/13 06:19:57;;;;;;;;;;;40.80;22.80;;;;;;4359275;32;19960;-38
2021/08/13 06:22:23;;;;;;;;;;;40.90;22.80;;;;;;4358445;32;19988;-36
2021/08/13 06:24:49;;;;;;;;;;;41.00;22.60;;;;;;4358700;32;19973;-36
2021/08/13 06:27:15;;;;;;;;;;;41.20;22.60;;;;;;4359420;32;20000;-37
2021/08/13 06:29:41;;;;;;;;;;;41.20;22.60;;;;;;4358722;32;20029;-37
2021/08/13 06:32:08;;;;;;;;;;;41.40;22.70;;;;;;4358552;32;20419;-37
2021/08/13 06:34:34;;;;;;;;;;;41.50;22.70;;;;;;4358923;32;20529;-37
2021/08/13 06:37:00;;;;;;;;;;;41.50;22.50;;;;;;4358774;32;20083;-38
2021/08/13 06:39:27;;;;;;;;;;;41.60;22.40;;;;;;4358447;32;19972;-39
2021/08/13 06:41:53;;;;;;;;;;;41.70;22.30;;;;;;4358649;32;19962;-37
2021/08/13 06:44:19;;;;;;;;;;;41.80;22.00;;;;;;4358817;32;20006;-37
2021/08/13 06:46:45;;;;;;;;;;;41.90;21.90;;;;;;4358429;32;20053;-36
2021/08/13 06:49:12;;;;;;;;;;;41.90;22.00;;;;;;4358566;32;20038;-36
2021/08/13 06:51:38;;;;;;;;;;;42.00;22.00;;;;;;4358501;32;20345;-37
2021/08/13 06:54:04;;;;;;;;;;;42.10;22.20;;;;;;4358124;32;19953;-36
2021/08/13 06:56:30;;;;;;;;;;;42.20;22.20;;;;;;4344902;32;19957;-36
2021/08/13 06:58:57;;;;;;;;;;;42.50;22.20;;;;;;4358586;32;19958;-37
2021/08/13 07:01:23;;;;;;;;;;;42.60;21.80;;;;;;4358481;32;19962;-37
2021/08/13 07:03:52;;;;;;;;;;;42.80;21.80;;;;;;4358355;32;19986;-37
2021/08/13 07:06:18;;;;;;;;;;;42.80;21.80;;;;;;4358690;32;19996;-36
2021/08/13 07:08:44;;;;;;;;;;;43.00;21.80;;;;;;4358522;32;19962;-36
2021/08/13 07:11:11;;;;;;;;;;;43.00;21.60;;;;;;4358519;32;20374;-37
2021/08/13 07:13:37;;;;;;;;;;;43.10;21.70;;;;;;4356649;32;19973;-37
2021/08/13 07:16:03;;;;;;;;;;;43.10;21.50;;;;;;4358417;32;20065;-37
2021/08/13 07:18:29;;;;;;;;;;;43.20;21.60;;;;;;4358443;32;20509;-37
2021/08/13 07:20:56;;;;;;;;;;;43.20;21.60;;;;;;4358088;32;20062;-37
2021/08/13 07:23:22;;;;;;;;;;;43.20;21.50;;;;;;4358494;32;19986;-37
2021/08/13 07:25:48;;;;;;;;;;;43.10;21.50;;;;;;4358316;32;19961;-37
2021/08/13 07:28:14;;;;;;;;;;;43.10;21.50;;;;;;4358155;32;19964;-37
2021/08/13 07:30:41;;;;;;;;;;;43.10;21.40;;;;;;4358367;32;20373;-37
2021/08/13 07:33:07;;;;;;;;;;;43.00;21.40;;;;;;4358187;32;20033;-38
2021/08/13 07:35:33;;;;;;;;;;;43.10;21.40;;;;;;4357825;32;19985;-39
2021/08/13 07:37:59;;;;;;;;;;;43.10;21.50;;;;;;4358738;32;19962;-37
2021/08/13 07:40:25;;;;;;;;;;;43.10;21.30;;;;;;4357943;32;20041;-37
2021/08/13 07:42:54;;;;;;;;;;;43.20;21.40;;;;;;4358017;32;19954;-38
2021/08/13 07:45:21;;;;;;;;;;;43.10;21.40;;;;;;4356533;32;19970;-38
2021/08/13 07:47:47;;;;;;;;;;;43.10;21.00;;;;;;4358213;32;19977;-38
2021/08/13 07:50:13;;;;;;;;;;;43.20;21.10;;;;;;4357854;32;19954;-38
2021/08/13 07:52:39;;;;;;;;;;;43.20;21.40;;;;;;4360759;32;19950;-37
2021/08/13 07:55:06;;;;;;;;;;;43.20;21.80;;;;;;4361057;32;20434;-36
2021/08/13 07:57:32;;;;;;;;;;;43.10;21.60;;;;;;4361410;32;20428;-37
2021/08/13 07:59:58;;;;;;;;;;;43.20;21.60;;;;;;4361079;32;20055;-37
2021/08/13 08:02:25;;;;;;;;;;;43.20;21.40;;;;;;4360401;32;20476;-38
2021/08/13 08:04:52;;;;;;;;;;;43.20;21.40;;;;;;4360592;32;20384;-38
2021/08/13 08:07:18;;;;;;;;;;;43.20;21.10;;;;;;4360892;32;20037;-37
2021/08/13 08:09:44;;;;;;;;;;;43.20;21.40;;;;;;4360492;32;19962;-37
2021/08/13 08:12:10;;;;;;;;;;;43.20;21.40;;;;;;4360327;32;19950;-38
2021/08/13 08:14:36;;;;;;;;;;;43.20;21.10;;;;;;4346386;32;19958;-38
2021/08/13 08:17:03;;;;;;;;;;;43.30;21.30;;;;;;4361240;32;19969;-39
2021/08/13 08:19:29;;;;;;;;;;;43.40;21.60;;;;;;4360870;32;20436;-37
2021/08/13 08:21:56;;;;;;;;;;;43.40;21.70;;;;;;4360972;32;19986;-37
2021/08/13 08:24:22;;;;;;;;;;;43.50;21.90;;;;;;4360324;32;20445;-37
2021/08/13 08:26:49;;;;;;;;;;;43.50;21.10;;;;;;4360474;32;20346;-38
2021/08/13 08:29:15;;;;;;;;;;;43.50;21.20;;;;;;4360737;32;19986;-38
2021/08/13 08:31:41;;;;;;;;;;;43.60;21.50;;;;;;4346764;32;19962;-36
2021/08/13 08:34:07;;;;;;;;;;;43.60;21.60;;;;;;4360098;32;20382;-38
2021/08/13 08:36:34;;;;;;;;;;;43.60;20.80;;;;;;4360610;32;20373;-38
2021/08/13 08:39:00;;;;;;;;;;;43.60;20.60;;;;;;4346673;32;19961;-38
2021/08/13 08:41:27;;;;;;;;;;;43.50;20.90;;;;;;4360890;32;20065;-37
2021/08/13 08:43:53;;;;;;;;;;;43.50;21.10;;;;;;4346272;32;19962;-38
2021/08/13 08:46:19;;;;;;;;;;;43.40;21.10;;;;;;4360165;32;19958;-37
2021/08/13 08:48:49;;;;;;;;;;;43.40;20.90;;;;;;4360292;32;20355;-37
2021/08/13 08:51:16;;;;;;;;;;;43.40;20.80;;;;;;4360110;32;19946;-37
2021/08/13 08:53:42;;;;;;;;;;;43.40;21.00;;;;;;4359882;32;20498;-37
2021/08/13 08:56:08;;;;;;;;;;;43.50;20.90;;;;;;4345919;32;19954;-37
2021/08/13 08:58:35;;;;;;;;;;;43.50;21.10;;;;;;4359816;32;20055;-38
2021/08/13 09:01:01;;;;;;;;;;;43.60;21.00;;;;;;4347964;32;20016;-37
2021/08/13 09:03:27;;;;;;;;;;;43.50;20.70;;;;;;4374198;32;19961;-37
2021/08/13 09:05:53;;;;;;;;;;;43.60;21.40;;;;;;4375016;32;19960;-37
2021/08/13 09:08:20;;;;;;;;;;;43.80;21.50;;;;;;4374646;32;20385;-38
2021/08/13 09:10:46;;;;;;;;;;;43.80;21.10;;;;;;4375240;32;19957;-38
2021/08/13 09:13:12;;;;;;;;;;;43.90;21.10;;;;;;4374508;32;19969;-38
2021/08/13 09:15:39;;;;;;;;;;;44.00;20.70;;;;;;4375667;32;20050;-37
2021/08/13 09:18:14;;;;;;;;;;;44.00;20.50;;;;;;4375249;32;20036;-38
2021/08/13 09:20:43;;;;;;;;;;;43.90;20.20;;;;;;4375301;32;19992;-38
2021/08/13 09:23:10;;;;;;;;;;;43.90;20.10;;;;;;4375017;32;19988;-38
2021/08/13 09:25:36;;;;;;;;;;;43.90;20.40;;;;;;4374745;32;20032;-38
2021/08/13 09:28:03;;;;;;;;;;;43.90;20.40;;;;;;4374510;32;20033;-37
2021/08/13 09:30:29;;;;;;;;;;;44.00;20.40;;;;;;4374619;32;20593;-38
2021/08/13 09:33:00;;;;;;;;;;;44.10;20.40;;;;;;4374909;32;20394;-36
2021/08/13 09:35:44;;;;;;;;;;;44.10;20.80;;;;;;4374239;32;19965;-38
2021/08/13 09:38:12;;;;;;;;;;;44.20;20.90;;;;;;4374441;32;19972;-38
2021/08/13 09:40:40;;;;;;;;;;;44.20;21.20;;;;;;4374574;32;20343;-36
2021/08/13 09:43:06;;;;;;;;;;;44.20;20.30;;;;;;4374772;32;19957;-38
2021/08/13 09:45:33;;;;;;;;;;;44.20;20.30;;;;;;4374532;32;20045;-36
2021/08/13 09:47:59;;;;;;;;;;;44.20;20.40;;;;;;4374589;32;19961;-37
2021/08/13 09:50:37;;;;;;;;;;;44.20;20.70;;;;;;4347951;32;19957;-38
2021/08/13 09:53:09;;;;;;;;;;;44.30;21.30;;;;;;4374236;32;19964;-38
2021/08/13 09:55:35;;;;;;;;;;;44.30;20.90;;;;;;4374088;32;20122;-37
2021/08/13 09:58:02;;;;;;;;;;;44.40;20.90;;;;;;4373795;32;20093;-38
2021/08/13 10:00:28;;;;;;;;;;;44.40;20.50;;;;;;4373997;32;20430;-38
2021/08/13 10:03:05;;;;;;;;;;;44.50;20.30;;;;;;4360328;32;20037;-36
2021/08/13 10:05:31;;;;;;;;;;;44.50;20.50;;;;;;4345506;32;20051;-37
2021/08/13 10:08:00;;;;;;;;;;;44.60;20.40;;;;;;4345350;32;19973;-38
2021/08/13 10:10:28;;;;;;;;;;;44.70;20.40;;;;;;4359183;32;19974;-38
2021/08/13 10:12:54;;;;;;;;;;;44.70;20.10;;;;;;4358992;32;19954;-38
2021/08/13 10:15:33;;;;;;;;;;;44.70;19.90;;;;;;4358654;32;19965;-37
2021/08/13 10:18:01;;;;;;;;;;;44.70;20.20;;;;;;4359031;32;20034;-37
2021/08/13 10:20:29;;;;;;;;;;;44.80;20.70;;;;;;4359178;32;20015;-37
2021/08/13 10:22:56;;;;;;;;;;;44.90;20.90;;;;;;4359248;32;19987;-37
2021/08/13 10:25:22;;;;;;;;;;;44.90;20.70;;;;;;4359061;32;20476;-39
2021/08/13 10:27:48;;;;;;;;;;;44.70;20.70;;;;;;4358855;32;19973;-37
2021/08/13 10:30:16;;;;;;;;;;;44.70;21.00;;;;;;4359082;32;20387;-39
2021/08/13 10:32:42;;;;;;;;;;;44.70;21.60;;;;;;4359375;32;19962;-37
2021/08/13 10:35:09;;;;;;;;;;;44.70;21.30;;;;;;4332647;32;19958;-36
2021/08/13 10:37:36;;;;;;;;;;;44.70;21.40;;;;;;4358552;32;19982;-38
2021/08/13 10:40:02;;;;;;;;;;;44.70;21.40;;;;;;4344192;32;20381;-38
2021/08/13 10:42:28;;;;;;;;;;;44.70;21.40;;;;;;4359136;32;19987;-38
2021/08/13 10:45:03;;;;;;;;;;;44.70;21.30;;;;;;4332804;32;20014;-38
2021/08/13 10:47:32;;;;;;;;;;;44.70;21.20;;;;;;4358688;32;19985;-38
2021/08/13 10:49:59;;;;;;;;;;;44.70;21.20;;;;;;4344706;32;20047;-37
2021/08/13 10:52:35;;;;;;;;;;;44.60;20.50;;;;;;4344269;32;20038;-38
2021/08/13 10:55:02;;;;;;;;;;;44.60;20.70;;;;;;4345012;32;20029;-37
2021/08/13 10:57:47;;;;;;;;;;;44.60;20.70;;;;;;4358226;32;19985;-38
2021/08/13 11:00:14;;;;;;;;;;;44.60;20.60;;;;;;4358239;32;20029;-40
2021/08/13 11:02:40;;;;;;;;;;;44.70;20.50;;;;;;4358047;32;19965;-38
2021/08/13 11:05:07;;;;;;;;;;;44.70;20.50;;;;;;4356666;32;19962;-37
2021/08/13 11:07:57;;;;;;;;;;;44.70;20.60;;;;;;4358316;32;19950;-37
2021/08/13 11:10:38;;;;;;;;;;;44.60;20.60;;;;;;4358123;32;19965;-37
2021/08/13 11:13:11;;;;;;;;;;;44.60;20.80;;;;;;4358523;32;19967;-38
2021/08/13 11:15:38;;;;;;;;;;;44.50;20.90;;;;;;4358397;32;19969;-37
2021/08/13 11:18:36;;;;;;;;;;;44.40;20.90;;;;;;4357209;32;20129;-37
2021/08/13 11:21:03;;;;;;;;;;;44.40;20.90;;;;;;4358411;32;20078;-38
2021/08/13 11:23:30;;;;;;;;;;;44.30;21.10;;;;;;4357892;32;19985;-37
2021/08/13 11:25:56;;;;;;;;;;;44.30;21.30;;;;;;4357833;32;19991;-38
2021/08/13 11:28:24;;;;;;;;;;;44.20;21.50;;;;;;4356736;32;20402;-37
2021/08/13 11:30:52;;;;;;;;;;;44.20;21.60;;;;;;4357988;32;20386;-38
2021/08/13 11:33:27;;;;;;;;;;;44.10;21.60;;;;;;4358216;32;20041;-38
2021/08/13 11:35:54;;;;;;;;;;;44.10;21.70;;;;;;4357893;32;19961;-38
2021/08/13 11:38:42;;;;;;;;;;;44.20;21.30;;;;;;4358159;32;19977;-38
2021/08/13 11:41:20;;;;;;;;;;;44.20;21.00;;;;;;4357857;32;20346;-41
2021/08/13 11:43:50;;;;;;;;;;;44.40;21.10;;;;;;4358296;32;20047;-38
2021/08/13 11:46:32;;;;;;;;;;;44.50;20.90;;;;;;4358121;32;19953;-38
2021/08/13 11:48:59;;;;;;;;;;;44.60;20.80;;;;;;4358575;32;19982;-38
2021/08/13 11:51:26;;;;;;;;;;;44.70;21.00;;;;;;4356314;32;20493;-38
2021/08/13 11:53:53;;;;;;;;;;;44.70;21.30;;;;;;4358215;32;19964;-37
2021/08/13 11:56:29;;;;;;;;;;;44.70;21.40;;;;;;4358205;32;19990;-37
2021/08/13 11:59:00;;;;;;;;;;;44.80;20.80;;;;;;4344237;32;20354;-38
2021/08/13 12:01:26;;;;;;;;;;;44.90;20.70;;;;;;4357495;32;19985;-37
2021/08/13 12:03:53;;;;;;;;;;;44.90;20.40;;;;;;4357833;32;19997;-37
2021/08/13 12:06:19;;;;;;;;;;;45.10;20.50;;;;;;4357623;32;19961;-38
2021/08/13 12:08:46;;;;;;;;;;;45.10;20.20;;;;;;4358094;32;19950;-37
2021/08/13 12:11:13;;;;;;;;;;;45.10;20.20;;;;;;4358078;32;19958;-37
2021/08/13 12:13:39;;;;;;;;;;;45.00;20.30;;;;;;4357561;32;20003;-38
2021/08/13 12:16:06;;;;;;;;;;;45.00;20.40;;;;;;4357913;32;20406;-37
2021/08/13 12:18:34;;;;;;;;;;;45.00;20.30;;;;;;4357751;32;20454;-38
2021/08/13 12:21:06;;;;;;;;;;;45.10;20.20;;;;;;4357514;32;19965;-37
2021/08/13 12:23:33;;;;;;;;;;;45.10;20.40;;;;;;4357528;32;19969;-38
2021/08/13 12:26:02;;;;;;;;;;;45.10;20.60;;;;;;4357435;32;19988;-37
2021/08/13 12:28:32;;;;;;;;;;;45.10;20.70;;;;;;4357430;32;20541;-37
2021/08/13 12:31:06;;;;;;;;;;;45.10;20.80;;;;;;4343952;32;19988;-37
2021/08/13 12:33:32;;;;;;;;;;;45.10;20.70;;;;;;4343602;32;19950;-37
2021/08/13 12:35:58;;;;;;;;;;;45.10;20.80;;;;;;4357577;32;20032;-37
2021/08/13 12:38:37;;;;;;;;;;;45.10;21.00;;;;;;4359588;32;20079;-37
2021/08/13 12:41:03;;;;;;;;;;;45.10;21.30;;;;;;4360048;32;19965;-37
2021/08/13 12:43:30;;;;;;;;;;;45.00;21.40;;;;;;4346401;32;19954;-37
2021/08/13 12:45:56;;;;;;;;;;;45.00;21.40;;;;;;4360099;32;19985;-38
2021/08/13 12:48:23;;;;;;;;;;;45.10;21.50;;;;;;4346198;32;19981;-38
2021/08/13 12:50:56;;;;;;;;;;;45.10;21.30;;;;;;4360418;32;20406;-37
2021/08/13 12:53:36;;;;;;;;;;;45.20;21.30;;;;;;4360026;32;19974;-38
2021/08/13 12:56:03;;;;;;;;;;;45.40;21.30;;;;;;4346127;32;20142;-36
2021/08/13 12:58:34;;;;;;;;;;;45.50;21.10;;;;;;4359683;32;20004;-38
2021/08/13 13:01:23;;;;;;;;;;;45.60;21.10;;;;;;4359754;32;19979;-36
2021/08/13 13:04:09;;;;;;;;;;;45.60;21.10;;;;;;4358653;32;19970;-38
2021/08/13 13:06:36;;;;;;;;;;;45.60;21.00;;;;;;4359777;32;20398;-38
2021/08/13 13:09:02;;;;;;;;;;;45.50;20.80;;;;;;4358381;32;19950;-38
2021/08/13 13:11:30;;;;;;;;;;;45.40;20.80;;;;;;4359934;32;20471;-37
2021/08/13 13:13:57;;;;;;;;;;;45.40;20.80;;;;;;4365237;32;19949;-38
2021/08/13 13:16:23;;;;;;;;;;;45.30;20.90;;;;;;4374807;32;19953;-38
2021/08/13 13:18:49;;;;;;;;;;;45.20;20.80;;;;;;4375151;32;19954;-38
2021/08/13 13:21:24;;;;;;;;;;;45.20;20.80;;;;;;4374799;32;20053;-36
2021/08/13 13:23:50;;;;;;;;;;;45.10;20.60;;;;;;4375027;32;20045;-38
2021/08/13 13:26:16;;;;;;;;;;;45.10;20.60;;;;;;4374621;32;19993;-38
2021/08/13 13:28:43;;;;;;;;;;;45.20;20.40;;;;;;4375109;32;20061;-37
2021/08/13 13:31:18;;;;;;;;;;;45.20;20.30;;;;;;4374751;32;19953;-38
2021/08/13 13:33:44;;;;;;;;;;;45.20;20.10;;;;;;4361103;32;20066;-38
2021/08/13 13:36:11;;;;;;;;;;;45.30;20.20;;;;;;4374331;32;19981;-38
2021/08/13 13:38:39;;;;;;;;;;;45.30;20.10;;;;;;4374158;32;19980;-37
2021/08/13 13:41:06;;;;;;;;;;;45.30;20.00;;;;;;4374328;32;19964;-38
2021/08/13 13:43:32;;;;;;;;;;;45.30;20.00;;;;;;4374350;32;19964;-38
2021/08/13 13:45:59;;;;;;;;;;;45.30;19.90;;;;;;4374159;32;19960;-41
2021/08/13 13:48:25;;;;;;;;;;;45.30;19.80;;;;;;4341671;32;20604;-39
2021/08/13 13:50:52;;;;;;;;;;;45.30;19.90;;;;;;4341834;33;20067;-39
2021/08/13 13:53:18;;;;;;;;;;;45.30;19.90;;;;;;4329728;33;19969;-37
2021/08/13 13:55:44;;;;;;;;;;;45.20;19.90;;;;;;4329501;33;20053;-37
2021/08/13 13:58:11;;;;;;;;;;;45.20;20.10;;;;;;4341968;33;20399;-37
2021/08/13 14:00:38;;;;;;;;;;;45.20;20.10;;;;;;4341241;33;20373;-37
2021/08/13 14:03:04;;;;;;;;;;;45.20;20.20;;;;;;4329717;33;20386;-37
2021/08/13 14:05:31;;;;;;;;;;;45.10;20.20;;;;;;4341680;33;19965;-37
2021/08/13 14:07:58;;;;;;;;;;;45.10;20.10;;;;;;4341779;33;20004;-38
2021/08/13 14:10:26;;;;;;;;;;;45.00;20.10;;;;;;4341901;33;19958;-38
2021/08/13 14:12:52;;;;;;;;;;;45.00;20.10;;;;;;4329973;33;20480;-38
2021/08/13 14:15:19;;;;;;;;;;;44.90;20.20;;;;;;4329223;33;20469;-38
2021/08/13 14:17:46;;;;;;;;;;;44.90;20.30;;;;;;4341427;33;20041;-37
2021/08/13 14:20:13;;;;;;;;;;;44.70;20.30;;;;;;4341843;33;20046;-39